Time;durP1;ratioP1;P1;durP2;ratioP2;P2;SDS_P1;SDS_P2;PMS_P1;PMS_P2;Temp;Humidity;BMP_temperature;BMP_pressure;BME280_temperature;BME280_humidity;BME280_pressure;Samples;Min_cycle;Max_cycle;Signal;HPM_P1;HPM_P2
2021/08/27 00:01:15;;;;;;;12.07;3.30;;;;;;;;;;5000112;28;20132;-72
2021/08/27 00:03:43;;;;;;;10.32;2.70;;;;;;;;;;5006820;28;20049;-69
2021/08/27 00:06:10;;;;;;;9.90;3.05;;;;;;;;;;5021365;28;20038;-71
2021/08/27 00:08:37;;;;;;;10.80;3.83;;;;;;;;;;4999161;28;20053;-70
2021/08/27 00:11:04;;;;;;;13.88;5.00;;;;;;;;;;5013858;28;20048;-69
2021/08/27 00:13:32;;;;;;;17.20;4.97;;;;;;;;;;5006873;28;22227;-69
2021/08/27 00:15:59;;;;;;;13.63;4.97;;;;;;;;;;5020560;28;20499;-70
2021/08/27 00:18:27;;;;;;;18.17;5.32;;;;;;;;;;5006473;28;20730;-70
2021/08/27 00:20:54;;;;;;;13.63;4.68;;;;;;;;;;5003089;28;20443;-69
2021/08/27 00:23:21;;;;;;;13.88;4.35;;;;;;;;;;5005869;28;20065;-70
2021/08/27 00:25:48;;;;;;;10.50;4.40;;;;;;;;;;5005550;28;20046;-71
2021/08/27 00:28:15;;;;;;;14.48;5.35;;;;;;;;;;5006163;28;20038;-68
2021/08/27 00:30:42;;;;;;;12.43;4.57;;;;;;;;;;5006293;28;20516;-70
2021/08/27 00:33:10;;;;;;;15.57;5.53;;;;;;;;;;4992131;28;20050;-70
2021/08/27 00:35:37;;;;;;;12.20;4.47;;;;;;;;;;4986763;28;20175;-67
2021/08/27 00:38:04;;;;;;;13.15;4.57;;;;;;;;;;4984896;28;20042;-71
2021/08/27 00:40:31;;;;;;;13.40;4.88;;;;;;;;;;4986964;28;20046;-70
2021/08/27 00:42:59;;;;;;;14.65;4.70;;;;;;;;;;5001193;28;20042;-72
2021/08/27 00:45:26;;;;;;;13.73;5.18;;;;;;;;;;4986772;28;20073;-71
2021/08/27 00:47:53;;;;;;;20.40;6.20;;;;;;;;;;4986922;28;20046;-70
2021/08/27 00:50:20;;;;;;;15.82;5.25;;;;;;;;;;4986552;28;20042;-71
2021/08/27 00:52:47;;;;;;;10.25;4.57;;;;;;;;;;4987198;28;20076;-70
2021/08/27 00:55:14;;;;;;;13.23;4.60;;;;;;;;;;5001035;28;20065;-70
2021/08/27 00:57:42;;;;;;;14.32;4.85;;;;;;;;;;5001362;28;20034;-70
2021/08/27 01:00:09;;;;;;;13.57;5.05;;;;;;;;;;4986800;28;20125;-69
2021/08/27 01:02:37;;;;;;;14.27;6.90;;;;;;;;;;4983869;28;20065;-69
2021/08/27 01:05:06;;;;;;;16.33;5.55;;;;;;;;;;4986461;28;20138;-70
2021/08/27 01:08:10;;;;;;;11.23;4.78;;;;;;;;;;4986333;28;20497;-71
2021/08/27 01:10:42;;;;;;;13.07;4.60;;;;;;;;;;4983272;28;20074;-70
2021/08/27 01:13:19;;;;;;;12.40;4.28;;;;;;;;;;5000831;28;20042;-69
2021/08/27 01:16:04;;;;;;;10.90;4.18;;;;;;;;;;4986069;28;20046;-69
2021/08/27 01:18:42;;;;;;;12.50;4.50;;;;;;;;;;4986076;28;20045;-69
2021/08/27 01:21:33;;;;;;;9.60;4.32;;;;;;;;;;4984556;28;20072;-70
2021/08/27 01:24:03;;;;;;;13.23;5.65;;;;;;;;;;4986280;28;20038;-70
2021/08/27 01:26:34;;;;;;;14.10;4.70;;;;;;;;;;4985681;28;20066;-70
2021/08/27 01:29:04;;;;;;;12.77;5.68;;;;;;;;;;4985941;28;20037;-75
2021/08/27 01:31:32;;;;;;;14.82;5.05;;;;;;;;;;4985540;28;20049;-70
2021/08/27 01:34:35;;;;;;;15.45;4.90;;;;;;;;;;4985722;28;20128;-70
2021/08/27 01:37:06;;;;;;;16.17;5.68;;;;;;;;;;4985524;28;20474;-70
2021/08/27 01:39:40;;;;;;;19.45;7.13;;;;;;;;;;4983646;28;20039;-69
2021/08/27 01:42:11;;;;;;;17.40;6.32;;;;;;;;;;4985801;28;20054;-70
2021/08/27 01:44:40;;;;;;;15.18;5.93;;;;;;;;;;4985823;28;20057;-69
2021/08/27 01:47:08;;;;;;;17.90;6.35;;;;;;;;;;4984892;28;20489;-68
2021/08/27 01:49:35;;;;;;;18.55;7.05;;;;;;;;;;4983902;28;20129;-68
2021/08/27 01:52:09;;;;;;;19.83;6.32;;;;;;;;;;4998161;28;20053;-70
2021/08/27 01:54:38;;;;;;;17.60;6.82;;;;;;;;;;4983496;28;20046;-69
2021/08/27 01:57:07;;;;;;;18.30;6.13;;;;;;;;;;4985171;28;20485;-70
2021/08/27 01:59:39;;;;;;;23.95;7.60;;;;;;;;;;4999522;28;20070;-72
2021/08/27 02:02:08;;;;;;;16.52;7.10;;;;;;;;;;4982870;28;20469;-70
2021/08/27 02:04:38;;;;;;;18.00;6.22;;;;;;;;;;4975269;28;20056;-73
2021/08/27 02:07:06;;;;;;;14.05;5.43;;;;;;;;;;4983165;28;20042;-70
2021/08/27 02:09:34;;;;;;;14.80;5.32;;;;;;;;;;4984471;28;20042;-71
2021/08/27 02:12:02;;;;;;;13.82;4.63;;;;;;;;;;4985504;28;20042;-71
2021/08/27 02:14:30;;;;;;;18.70;4.85;;;;;;;;;;4967033;28;20038;-72
2021/08/27 02:16:57;;;;;;;17.85;4.85;;;;;;;;;;4967124;28;20050;-76
2021/08/27 02:19:24;;;;;;;15.82;5.05;;;;;;;;;;4982618;28;20425;-71
2021/08/27 02:21:55;;;;;;;13.85;6.40;;;;;;;;;;4984970;28;20436;-70
2021/08/27 02:24:29;;;;;;;18.77;6.90;;;;;;;;;;4975399;28;20069;-73
2021/08/27 02:26:58;;;;;;;17.70;6.65;;;;;;;;;;4966862;28;20500;-71
2021/08/27 02:29:26;;;;;;;16.27;6.60;;;;;;;;;;4998965;28;20412;-70
2021/08/27 02:32:01;;;;;;;11.25;5.75;;;;;;;;;;4984520;28;20047;-70
2021/08/27 02:34:31;;;;;;;13.90;5.50;;;;;;;;;;4984490;28;20109;-70
2021/08/27 02:37:00;;;;;;;18.33;5.88;;;;;;;;;;4999137;28;20042;-70
2021/08/27 02:39:29;;;;;;;17.65;6.38;;;;;;;;;;4983985;28;20039;-70
2021/08/27 02:42:01;;;;;;;13.30;5.07;;;;;;;;;;4982611;28;20145;-69
2021/08/27 02:44:29;;;;;;;14.68;4.60;;;;;;;;;;4984240;28;20544;-72
2021/08/27 02:46:57;;;;;;;12.65;4.22;;;;;;;;;;4984758;28;20108;-70
2021/08/27 02:49:24;;;;;;;12.82;4.07;;;;;;;;;;4984231;28;20524;-69
2021/08/27 02:52:11;;;;;;;15.93;4.82;;;;;;;;;;4984133;28;20177;-71
2021/08/27 02:55:04;;;;;;;16.80;5.25;;;;;;;;;;4984066;28;20078;-70
2021/08/27 02:57:58;;;;;;;17.30;5.30;;;;;;;;;;4981974;28;20050;-70
2021/08/27 03:00:28;;;;;;;16.35;4.35;;;;;;;;;;4984273;28;20042;-70
2021/08/27 03:02:56;;;;;;;11.52;4.28;;;;;;;;;;4982500;28;20522;-69
2021/08/27 03:05:25;;;;;;;15.77;4.63;;;;;;;;;;4966133;28;20444;-70
2021/08/27 03:07:59;;;;;;;15.55;4.85;;;;;;;;;;4984619;28;20042;-69
2021/08/27 03:10:29;;;;;;;13.18;5.07;;;;;;;;;;4983983;28;20555;-70
2021/08/27 03:13:04;;;;;;;13.90;4.88;;;;;;;;;;4984053;28;20121;-69
2021/08/27 03:15:59;;;;;;;11.32;4.65;;;;;;;;;;4984156;28;20046;-70
2021/08/27 03:18:32;;;;;;;16.67;5.28;;;;;;;;;;4981733;28;20062;-70
2021/08/27 03:21:21;;;;;;;13.65;4.10;;;;;;;;;;4983756;28;20047;-72
2021/08/27 03:23:50;;;;;;;15.02;5.00;;;;;;;;;;4982257;28;20046;-72
2021/08/27 03:26:23;;;;;;;13.18;4.72;;;;;;;;;;4985336;28;20400;-70
2021/08/27 03:28:54;;;;;;;13.07;4.82;;;;;;;;;;5002575;28;20158;-70
2021/08/27 03:31:24;;;;;;;12.65;5.13;;;;;;;;;;4987672;28;20062;-70
2021/08/27 03:33:54;;;;;;;14.35;4.95;;;;;;;;;;4986132;28;20388;-70
2021/08/27 03:36:26;;;;;;;14.30;4.97;;;;;;;;;;4987494;28;20042;-74
2021/08/27 03:38:57;;;;;;;12.85;5.35;;;;;;;;;;4985694;28;21297;-70
2021/08/27 03:41:34;;;;;;;14.40;4.53;;;;;;;;;;5002141;28;20105;-70
2021/08/27 03:44:03;;;;;;;20.08;6.78;;;;;;;;;;4986101;28;20069;-70
2021/08/27 03:46:30;;;;;;;23.55;6.38;;;;;;;;;;4985564;28;20481;-74
2021/08/27 03:48:58;;;;;;;20.48;6.78;;;;;;;;;;4986324;28;20404;-70
2021/08/27 03:51:27;;;;;;;15.98;5.65;;;;;;;;;;4987665;28;20547;-70
2021/08/27 03:53:55;;;;;;;19.63;6.30;;;;;;;;;;4987310;28;20042;-70
2021/08/27 03:56:26;;;;;;;12.80;4.85;;;;;;;;;;4986346;28;21712;-71
2021/08/27 03:58:53;;;;;;;17.48;5.38;;;;;;;;;;4986029;28;20061;-73
2021/08/27 04:01:24;;;;;;;19.98;4.95;;;;;;;;;;4987145;28;20042;-69
2021/08/27 04:03:51;;;;;;;14.18;5.28;;;;;;;;;;5001856;28;20090;-70
2021/08/27 04:06:18;;;;;;;15.63;5.25;;;;;;;;;;4985755;28;20038;-70
2021/08/27 04:08:46;;;;;;;18.77;7.15;;;;;;;;;;4987001;28;20046;-69
2021/08/27 04:11:17;;;;;;;22.05;7.78;;;;;;;;;;4986770;28;20088;-70
2021/08/27 04:13:45;;;;;;;20.98;8.15;;;;;;;;;;4985199;28;20043;-69
2021/08/27 04:16:12;;;;;;;23.58;9.43;;;;;;;;;;4987493;28;20062;-70
2021/08/27 04:18:42;;;;;;;20.80;8.82;;;;;;;;;;4985464;28;20035;-69
2021/08/27 04:21:09;;;;;;;23.55;9.73;;;;;;;;;;4977769;28;20142;-70
2021/08/27 04:23:36;;;;;;;28.45;9.50;;;;;;;;;;4967921;28;20486;-69
2021/08/27 04:26:04;;;;;;;25.70;7.75;;;;;;;;;;4982162;28;20042;-69
2021/08/27 04:28:34;;;;;;;19.52;8.00;;;;;;;;;;4967563;28;20049;-71
2021/08/27 04:31:01;;;;;;;15.13;6.75;;;;;;;;;;4968157;28;20050;-71
2021/08/27 04:33:28;;;;;;;17.02;7.10;;;;;;;;;;4978594;28;20038;-69
2021/08/27 04:35:55;;;;;;;21.88;7.68;;;;;;;;;;4986086;28;20460;-69
2021/08/27 04:38:22;;;;;;;19.70;8.30;;;;;;;;;;4985899;28;20113;-69
2021/08/27 04:40:50;;;;;;;20.08;7.50;;;;;;;;;;4986670;28;20050;-69
2021/08/27 04:43:17;;;;;;;24.15;8.00;;;;;;;;;;4986383;28;20042;-69
2021/08/27 04:45:45;;;;;;;17.52;5.95;;;;;;;;;;4986861;28;20046;-69
2021/08/27 04:48:13;;;;;;;20.95;7.78;;;;;;;;;;4986371;28;20039;-72
2021/08/27 04:50:40;;;;;;;19.88;7.47;;;;;;;;;;4985923;28;20133;-72
2021/08/27 04:53:07;;;;;;;19.77;6.50;;;;;;;;;;4986745;28;20525;-69
2021/08/27 04:55:34;;;;;;;18.90;6.35;;;;;;;;;;4986022;28;20100;-70
2021/08/27 04:58:01;;;;;;;22.58;6.70;;;;;;;;;;4986673;28;20035;-69
2021/08/27 05:00:28;;;;;;;20.23;6.43;;;;;;;;;;4986623;28;20049;-69
2021/08/27 05:02:56;;;;;;;17.60;6.05;;;;;;;;;;4986119;28;20464;-69
2021/08/27 05:05:23;;;;;;;20.92;6.75;;;;;;;;;;4986494;28;20181;-73
2021/08/27 05:07:50;;;;;;;16.90;6.60;;;;;;;;;;5000962;28;20053;-68
2021/08/27 05:10:17;;;;;;;19.00;6.35;;;;;;;;;;4984636;28;20060;-69
2021/08/27 05:12:44;;;;;;;13.68;5.53;;;;;;;;;;4986068;28;20466;-70
2021/08/27 05:15:12;;;;;;;16.33;5.60;;;;;;;;;;4984413;28;20169;-68
2021/08/27 05:17:40;;;;;;;14.88;4.82;;;;;;;;;;4983870;28;20054;-70
2021/08/27 05:20:08;;;;;;;11.68;4.30;;;;;;;;;;5000899;28;20042;-71
2021/08/27 05:22:35;;;;;;;15.95;5.47;;;;;;;;;;4984251;28;20053;-71
2021/08/27 05:25:02;;;;;;;14.35;5.38;;;;;;;;;;5000227;28;20038;-73
2021/08/27 05:27:29;;;;;;;16.42;6.03;;;;;;;;;;4984415;28;20041;-70
2021/08/27 05:29:57;;;;;;;17.10;6.05;;;;;;;;;;4988409;28;20116;-69
2021/08/27 05:32:24;;;;;;;14.88;5.00;;;;;;;;;;4987291;28;20061;-69
2021/08/27 05:34:51;;;;;;;13.25;5.95;;;;;;;;;;4994803;28;20046;-69
2021/08/27 05:37:18;;;;;;;19.70;7.30;;;;;;;;;;4985934;28;20500;-69
2021/08/27 05:39:47;;;;;;;16.90;6.43;;;;;;;;;;4983837;28;20448;-70
2021/08/27 05:42:14;;;;;;;21.45;8.77;;;;;;;;;;4984204;28;20425;-69
2021/08/27 05:44:41;;;;;;;22.33;8.82;;;;;;;;;;4976613;28;20043;-71
2021/08/27 05:47:09;;;;;;;17.38;8.10;;;;;;;;;;4985542;28;20519;-68
2021/08/27 05:49:37;;;;;;;22.65;8.55;;;;;;;;;;4985081;28;20042;-69
2021/08/27 05:52:05;;;;;;;23.42;9.48;;;;;;;;;;4999813;28;20043;-70
2021/08/27 05:54:32;;;;;;;23.27;8.80;;;;;;;;;;4985632;28;20122;-69
2021/08/27 05:57:00;;;;;;;19.88;8.60;;;;;;;;;;4985107;28;20070;-73
2021/08/27 05:59:27;;;;;;;21.73;8.90;;;;;;;;;;4999924;28;20440;-73
2021/08/27 06:01:54;;;;;;;19.25;8.55;;;;;;;;;;4985334;28;20088;-69
2021/08/27 06:04:21;;;;;;;22.05;9.65;;;;;;;;;;4999949;28;20041;-69
2021/08/27 06:06:50;;;;;;;27.52;10.10;;;;;;;;;;4984496;28;20039;-76
2021/08/27 06:09:17;;;;;;;25.17;10.27;;;;;;;;;;4983059;28;20042;-73
2021/08/27 06:11:44;;;;;;;23.65;10.48;;;;;;;;;;4983005;28;20061;-68
2021/08/27 06:14:11;;;;;;;27.27;11.25;;;;;;;;;;4984690;28;20221;-69
2021/08/27 06:16:38;;;;;;;20.13;9.00;;;;;;;;;;4984744;28;20416;-73
2021/08/27 06:19:05;;;;;;;21.95;9.23;;;;;;;;;;4983628;28;20035;-68
2021/08/27 06:21:34;;;;;;;19.30;9.05;;;;;;;;;;4982994;28;20038;-68
2021/08/27 06:24:02;;;;;;;21.83;8.43;;;;;;;;;;4999495;28;20042;-68
2021/08/27 06:26:30;;;;;;;29.48;10.13;;;;;;;;;;4984555;28;20050;-69
2021/08/27 06:28:58;;;;;;;25.85;10.38;;;;;;;;;;4984418;28;20038;-69
2021/08/27 06:31:25;;;;;;;;;;;;;;;;;;4985168;28;20405;-69
2021/08/27 06:33:52;;;;;;;33.15;11.63;;;;;;;;;;4984641;28;19926;-69
2021/08/27 06:36:19;;;;;;;27.77;11.45;;;;;;;;;;4983391;28;20042;-72
2021/08/27 06:38:46;;;;;;;30.40;12.15;;;;;;;;;;4980237;28;20109;-69
2021/08/27 06:41:14;;;;;;;30.77;11.77;;;;;;;;;;4983147;28;20117;-68
2021/08/27 06:43:45;;;;;;;28.08;10.48;;;;;;;;;;4984292;28;20071;-68
2021/08/27 06:46:19;;;;;;;29.30;9.88;;;;;;;;;;4982694;28;20496;-69
2021/08/27 06:48:47;;;;;;;23.65;10.20;;;;;;;;;;4984264;28;20045;-68
2021/08/27 06:51:17;;;;;;;27.17;9.80;;;;;;;;;;4977184;28;20497;-68
2021/08/27 06:53:44;;;;;;;19.27;8.70;;;;;;;;;;4969561;28;20065;-69
2021/08/27 06:56:12;;;;;;;21.75;9.65;;;;;;;;;;4979678;28;20039;-68
2021/08/27 06:58:39;;;;;;;29.30;10.35;;;;;;;;;;4962968;28;20093;-68
2021/08/27 07:01:06;;;;;;;26.65;11.30;;;;;;;;;;4978629;28;20057;-72
2021/08/27 07:03:33;;;;;;;22.67;10.63;;;;;;;;;;4995510;28;20053;-73
2021/08/27 07:06:00;;;;;;;25.58;10.32;;;;;;;;;;4980458;28;20147;-68
2021/08/27 07:08:27;;;;;;;26.80;9.98;;;;;;;;;;4982846;28;20038;-69
2021/08/27 07:10:55;;;;;;;29.98;11.73;;;;;;;;;;4982318;28;20046;-74
2021/08/27 07:13:22;;;;;;;27.13;10.55;;;;;;;;;;4982345;28;20049;-68
2021/08/27 07:15:50;;;;;;;30.27;9.77;;;;;;;;;;4999004;28;20042;-69
2021/08/27 07:18:17;;;;;;;38.10;11.23;;;;;;;;;;4983944;28;20088;-68
2021/08/27 07:20:45;;;;;;;34.17;10.55;;;;;;;;;;4977521;28;20038;-70
2021/08/27 07:23:13;;;;;;;36.88;10.23;;;;;;;;;;4966708;28;20069;-68
2021/08/27 07:25:42;;;;;;;25.70;11.00;;;;;;;;;;4973444;28;20058;-74
2021/08/27 07:28:09;;;;;;;31.75;10.88;;;;;;;;;;4962759;28;20045;-72
2021/08/27 07:30:36;;;;;;;28.20;10.02;;;;;;;;;;4964979;28;20047;-68
2021/08/27 07:33:04;;;;;;;31.90;8.38;;;;;;;;;;4946808;28;20098;-69
2021/08/27 07:35:31;;;;;;;31.05;8.65;;;;;;;;;;4964381;28;20113;-69
2021/08/27 07:37:59;;;;;;;20.27;6.88;;;;;;;;;;4963061;28;20137;-68
2021/08/27 07:40:26;;;;;;;37.13;6.78;;;;;;;;;;4963951;28;20174;-69
2021/08/27 07:42:53;;;;;;;57.08;5.78;;;;;;;;;;4962449;28;20395;-70
2021/08/27 07:45:21;;;;;;;28.75;5.55;;;;;;;;;;4964803;28;20073;-69
2021/08/27 07:47:52;;;;;;;48.50;5.85;;;;;;;;;;4980894;28;20070;-74
2021/08/27 07:50:20;;;;;;;40.17;5.82;;;;;;;;;;4993213;28;20465;-69
2021/08/27 07:52:47;;;;;;;41.90;5.55;;;;;;;;;;4984396;28;20050;-69
2021/08/27 07:55:15;;;;;;;54.30;6.15;;;;;;;;;;4983613;28;20046;-68
2021/08/27 07:57:43;;;;;;;40.05;5.32;;;;;;;;;;4997821;28;20064;-72
2021/08/27 08:00:12;;;;;;;49.50;7.50;;;;;;;;;;4998457;28;20142;-69
2021/08/27 08:02:39;;;;;;;22.58;5.03;;;;;;;;;;4998217;28;20046;-70
2021/08/27 08:05:07;;;;;;;23.55;5.03;;;;;;;;;;4983610;28;20042;-69
2021/08/27 08:07:34;;;;;;;47.47;5.63;;;;;;;;;;4998587;28;20055;-69
2021/08/27 08:10:01;;;;;;;32.22;4.60;;;;;;;;;;4988286;28;20116;-69
2021/08/27 08:12:28;;;;;;;24.75;3.97;;;;;;;;;;4987011;28;20038;-70
2021/08/27 08:14:56;;;;;;;29.75;4.57;;;;;;;;;;4987233;28;20041;-69
2021/08/27 08:17:23;;;;;;;36.75;4.47;;;;;;;;;;4986785;28;20485;-70
2021/08/27 08:19:50;;;;;;;26.23;4.78;;;;;;;;;;4987568;28;20452;-69
2021/08/27 08:22:19;;;;;;;52.35;5.25;;;;;;;;;;4986438;28;20126;-69
2021/08/27 08:24:47;;;;;;;30.33;5.13;;;;;;;;;;5001379;28;20408;-69
2021/08/27 08:27:14;;;;;;;44.90;6.20;;;;;;;;;;4987433;28;20041;-69
2021/08/27 08:29:44;;;;;;;65.47;7.75;;;;;;;;;;4986978;28;20088;-68
2021/08/27 08:32:11;;;;;;;64.35;6.68;;;;;;;;;;4986610;28;20043;-72
2021/08/27 08:34:39;;;;;;;45.17;6.00;;;;;;;;;;4989428;28;20502;-69
2021/08/27 08:37:08;;;;;;;44.97;6.88;;;;;;;;;;4988953;28;20046;-69
2021/08/27 08:39:37;;;;;;;50.65;7.65;;;;;;;;;;4984809;28;20089;-69
2021/08/27 08:42:05;;;;;;;24.02;5.78;;;;;;;;;;4986156;28;20049;-71
2021/08/27 08:44:33;;;;;;;24.92;5.32;;;;;;;;;;4985461;28;20049;-68
2021/08/27 08:47:06;;;;;;;28.38;5.35;;;;;;;;;;4986059;28;20500;-68
2021/08/27 08:49:34;;;;;;;15.02;5.28;;;;;;;;;;4984588;28;20041;-68
2021/08/27 08:52:03;;;;;;;;;;;;;;;;;;5001543;28;20038;-68
2021/08/27 08:54:31;;;;;;;21.08;5.90;;;;;;;;;;4986942;28;19960;-68
2021/08/27 08:57:00;;;;;;;17.50;4.78;;;;;;;;;;4984669;28;20765;-68
2021/08/27 08:59:29;;;;;;;13.48;5.07;;;;;;;;;;4986382;28;20042;-71
2021/08/27 09:01:56;;;;;;;11.07;5.28;;;;;;;;;;4984394;28;20475;-70
2021/08/27 09:04:24;;;;;;;9.18;5.15;;;;;;;;;;4987191;28;20058;-68
2021/08/27 09:06:52;;;;;;;18.92;6.68;;;;;;;;;;4986169;28;20046;-68
2021/08/27 09:09:34;;;;;;;10.95;5.05;;;;;;;;;;4985953;28;20062;-69
2021/08/27 09:12:21;;;;;;;8.95;5.00;;;;;;;;;;4986134;28;20038;-73
2021/08/27 09:14:59;;;;;;;13.07;4.95;;;;;;;;;;4979051;28;20034;-70
2021/08/27 09:17:54;;;;;;;11.30;5.28;;;;;;;;;;4985994;28;20046;-69
2021/08/27 09:20:24;;;;;;;15.48;5.15;;;;;;;;;;4985897;28;20098;-68
2021/08/27 09:22:56;;;;;;;11.10;5.60;;;;;;;;;;4985398;28;20041;-70
2021/08/27 09:25:32;;;;;;;12.32;5.78;;;;;;;;;;4979087;28;20043;-70
2021/08/27 09:28:04;;;;;;;19.48;6.60;;;;;;;;;;4966310;28;20043;-69
2021/08/27 09:30:51;;;;;;;13.05;5.75;;;;;;;;;;4968689;28;20039;-69
2021/08/27 09:33:22;;;;;;;20.17;6.28;;;;;;;;;;4977608;28;20046;-68
2021/08/27 09:36:07;;;;;;;10.23;5.82;;;;;;;;;;4969134;28;20062;-69
2021/08/27 09:38:40;;;;;;;10.90;5.72;;;;;;;;;;4980474;28;20529;-69
2021/08/27 09:41:10;;;;;;;16.35;6.30;;;;;;;;;;4980730;28;20097;-68
2021/08/27 09:43:52;;;;;;;12.43;6.25;;;;;;;;;;4965865;28;20051;-71
2021/08/27 09:46:41;;;;;;;13.20;5.50;;;;;;;;;;4979287;28;20615;-67
2021/08/27 09:49:28;;;;;;;14.20;6.38;;;;;;;;;;4988690;28;20552;-69
2021/08/27 09:51:56;;;;;;;12.73;6.13;;;;;;;;;;4985146;28;20034;-68
2021/08/27 09:54:30;;;;;;;10.25;6.05;;;;;;;;;;4981166;28;20732;-74
2021/08/27 09:57:08;;;;;;;10.80;6.68;;;;;;;;;;4976847;28;20125;-68
2021/08/27 09:59:44;;;;;;;11.52;6.78;;;;;;;;;;4977648;28;20378;-67
2021/08/27 10:02:13;;;;;;;14.57;7.78;;;;;;;;;;4964388;28;20085;-68
2021/08/27 10:05:00;;;;;;;11.13;6.97;;;;;;;;;;4975756;28;20481;-68
2021/08/27 10:07:42;;;;;;;11.68;7.05;;;;;;;;;;4985751;28;20038;-68
2021/08/27 10:10:15;;;;;;;10.73;6.85;;;;;;;;;;5000108;28;20042;-67
2021/08/27 10:12:46;;;;;;;11.23;6.88;;;;;;;;;;5000447;28;20066;-68
2021/08/27 10:15:13;;;;;;;14.73;7.05;;;;;;;;;;4984165;28;20038;-68
2021/08/27 10:17:41;;;;;;;14.32;6.72;;;;;;;;;;4985609;28;20042;-69
2021/08/27 10:20:10;;;;;;;10.25;5.97;;;;;;;;;;4985929;28;20042;-68
2021/08/27 10:22:41;;;;;;;8.27;5.57;;;;;;;;;;4985243;28;20046;-68
2021/08/27 10:25:11;;;;;;;11.15;5.90;;;;;;;;;;4996367;28;20046;-73
2021/08/27 10:27:39;;;;;;;13.35;5.68;;;;;;;;;;4998046;28;20154;-70
2021/08/27 10:30:08;;;;;;;10.32;5.25;;;;;;;;;;4984263;28;20645;-72
2021/08/27 10:32:41;;;;;;;10.57;5.35;;;;;;;;;;4983295;28;20089;-69
2021/08/27 10:35:11;;;;;;;10.18;5.53;;;;;;;;;;4983863;28;20129;-69
2021/08/27 10:37:48;;;;;;;11.88;5.20;;;;;;;;;;4984030;28;20332;-69
2021/08/27 10:40:27;;;;;;;12.68;5.35;;;;;;;;;;4984393;28;20512;-70
2021/08/27 10:43:04;;;;;;;10.25;5.22;;;;;;;;;;4984189;28;20053;-69
2021/08/27 10:45:41;;;;;;;8.93;5.03;;;;;;;;;;4982865;28;20508;-70
2021/08/27 10:48:35;;;;;;;11.07;4.53;;;;;;;;;;4998919;28;20100;-72
2021/08/27 10:51:30;;;;;;;12.82;4.20;;;;;;;;;;4986192;28;20048;-69
2021/08/27 10:53:58;;;;;;;8.00;4.68;;;;;;;;;;4998380;28;20042;-70
2021/08/27 10:56:49;;;;;;;13.82;4.88;;;;;;;;;;4982772;28;20038;-69
2021/08/27 10:59:18;;;;;;;10.68;4.50;;;;;;;;;;4984021;28;20047;-69
2021/08/27 11:02:06;;;;;;;11.10;5.00;;;;;;;;;;4983824;28;20357;-70
2021/08/27 11:04:43;;;;;;;11.82;5.60;;;;;;;;;;4983829;28;20038;-69
2021/08/27 11:07:19;;;;;;;14.38;5.28;;;;;;;;;;4984059;28;20066;-70
2021/08/27 11:10:14;;;;;;;11.43;5.40;;;;;;;;;;4982602;28;20049;-71
2021/08/27 11:12:42;;;;;;;10.32;4.85;;;;;;;;;;4984204;28;20050;-70
2021/08/27 11:15:39;;;;;;;9.70;5.13;;;;;;;;;;4984106;28;20053;-71
2021/08/27 11:18:24;;;;;;;7.80;3.85;;;;;;;;;;4977641;28;20046;-72
2021/08/27 11:20:52;;;;;;;9.55;4.60;;;;;;;;;;4983936;28;20038;-70
2021/08/27 11:23:19;;;;;;;7.10;4.25;;;;;;;;;;4975427;28;20428;-70
2021/08/27 11:26:00;;;;;;;9.30;4.55;;;;;;;;;;4968913;28;20122;-70
2021/08/27 11:28:28;;;;;;;;;;;;;;;;;;4964650;28;20465;-71
2021/08/27 11:31:09;;;;;;;12.50;5.07;;;;;;;;;;4978784;28;20288;-75
2021/08/27 11:33:44;;;;;;;9.02;4.47;;;;;;;;;;4962783;28;20410;-71
2021/08/27 11:36:14;;;;;;;13.45;4.88;;;;;;;;;;4964381;28;20493;-74
2021/08/27 11:38:41;;;;;;;15.32;6.85;;;;;;;;;;4978569;28;20038;-71
2021/08/27 11:41:12;;;;;;;13.77;7.60;;;;;;;;;;4964199;28;20401;-71
2021/08/27 11:43:46;;;;;;;16.02;7.38;;;;;;;;;;4965001;28;20062;-70
2021/08/27 11:46:24;;;;;;;15.77;7.35;;;;;;;;;;4965208;28;20070;-74
2021/08/27 11:49:04;;;;;;;20.73;6.63;;;;;;;;;;4968311;28;20063;-70
2021/08/27 11:51:42;;;;;;;10.70;4.88;;;;;;;;;;4967841;28;20043;-71
2021/08/27 11:54:22;;;;;;;14.68;5.15;;;;;;;;;;4968250;28;20042;-70
2021/08/27 11:56:55;;;;;;;10.63;5.05;;;;;;;;;;4968155;28;20417;-71
2021/08/27 11:59:27;;;;;;;11.23;5.20;;;;;;;;;;4982738;28;20055;-71
2021/08/27 12:01:55;;;;;;;15.27;5.35;;;;;;;;;;4967696;28;20043;-71
2021/08/27 12:04:30;;;;;;;9.43;5.47;;;;;;;;;;4967676;28;20043;-71
2021/08/27 12:07:11;;;;;;;13.68;5.88;;;;;;;;;;4967667;28;20386;-73
2021/08/27 12:09:39;;;;;;;9.68;5.45;;;;;;;;;;4965866;28;20065;-73
2021/08/27 12:12:27;;;;;;;11.82;5.65;;;;;;;;;;4980903;28;20046;-72
2021/08/27 12:14:54;;;;;;;12.10;5.53;;;;;;;;;;4984620;28;20053;-71
2021/08/27 12:17:24;;;;;;;12.50;5.85;;;;;;;;;;4971599;28;20052;-71
2021/08/27 12:19:53;;;;;;;14.63;5.13;;;;;;;;;;4974623;28;20125;-72
2021/08/27 12:22:22;;;;;;;15.55;5.45;;;;;;;;;;4983174;28;20038;-72
2021/08/27 12:24:53;;;;;;;8.90;5.20;;;;;;;;;;4983717;28;20089;-73
2021/08/27 12:27:22;;;;;;;9.68;5.07;;;;;;;;;;4983487;28;20045;-72
2021/08/27 12:30:08;;;;;;;11.57;4.65;;;;;;;;;;4980607;28;20054;-72
2021/08/27 12:32:36;;;;;;;8.88;4.32;;;;;;;;;;4996122;28;20100;-73
2021/08/27 12:35:09;;;;;;;7.47;4.25;;;;;;;;;;4981349;28;20046;-72
2021/08/27 12:37:40;;;;;;;10.57;4.32;;;;;;;;;;4983061;28;20125;-74
2021/08/27 12:40:13;;;;;;;9.05;4.05;;;;;;;;;;4984081;28;20054;-72
2021/08/27 12:42:56;;;;;;;11.60;4.03;;;;;;;;;;4982714;28;20046;-72
2021/08/27 12:45:23;;;;;;;8.60;3.67;;;;;;;;;;4983740;28;20048;-73
2021/08/27 12:47:52;;;;;;;9.25;3.72;;;;;;;;;;4982272;28;20652;-70
2021/08/27 12:50:20;;;;;;;8.60;3.88;;;;;;;;;;4981696;28;20509;-73
2021/08/27 12:53:06;;;;;;;9.48;3.42;;;;;;;;;;4976818;28;20061;-71
2021/08/27 12:55:34;;;;;;;9.30;3.28;;;;;;;;;;4980543;28;20042;-72
2021/08/27 12:58:02;;;;;;;11.27;3.08;;;;;;;;;;4980453;28;22557;-73
2021/08/27 13:00:32;;;;;;;;;;;;;;;;;;4983195;28;20145;-73
2021/08/27 13:03:11;;;;;;;11.07;3.22;;;;;;;;;;4987909;28;19917;-72
2021/08/27 13:05:49;;;;;;;7.60;2.75;;;;;;;;;;4995531;28;20520;-72
2021/08/27 13:08:20;;;;;;;22.30;3.47;;;;;;;;;;4982982;28;20556;-72
2021/08/27 13:11:08;;;;;;;8.13;3.13;;;;;;;;;;4983622;28;20062;-72
2021/08/27 13:13:42;;;;;;;7.78;2.47;;;;;;;;;;4981931;28;20053;-74
2021/08/27 13:16:14;;;;;;;10.38;2.53;;;;;;;;;;4984647;28;20504;-71
2021/08/27 13:18:49;;;;;;;9.20;2.58;;;;;;;;;;4979424;28;20559;-71
2021/08/27 13:21:21;;;;;;;9.65;2.60;;;;;;;;;;4989965;28;20066;-71
2021/08/27 13:24:10;;;;;;;6.38;2.63;;;;;;;;;;4981585;28;20151;-75
2021/08/27 13:26:38;;;;;;;8.30;2.85;;;;;;;;;;4983284;28;20026;-74
2021/08/27 13:29:06;;;;;;;5.70;2.58;;;;;;;;;;4998095;28;20039;-76
2021/08/27 13:31:34;;;;;;;;;;;;;;;;;;4984416;28;20109;-74
2021/08/27 13:34:01;;;;;;;9.52;2.83;;;;;;;;;;4998348;28;19918;-70
2021/08/27 13:36:29;;;;;;;6.78;2.83;;;;;;;;;;4983063;28;20055;-72
2021/08/27 13:38:59;;;;;;;6.65;2.40;;;;;;;;;;4998242;28;20120;-73
2021/08/27 13:41:28;;;;;;;10.68;3.00;;;;;;;;;;4981727;28;20042;-71
2021/08/27 13:43:55;;;;;;;10.88;3.03;;;;;;;;;;4997499;28;20049;-73
2021/08/27 13:46:22;;;;;;;9.00;2.60;;;;;;;;;;4980629;28;20042;-72
2021/08/27 13:48:49;;;;;;;8.95;2.90;;;;;;;;;;4983192;28;20066;-71
2021/08/27 13:51:17;;;;;;;10.10;4.28;;;;;;;;;;4998396;28;20069;-74
2021/08/27 13:53:44;;;;;;;10.30;3.67;;;;;;;;;;4980950;28;20041;-69
2021/08/27 13:56:11;;;;;;;10.38;4.30;;;;;;;;;;4982025;28;20046;-71
2021/08/27 13:58:39;;;;;;;11.70;4.97;;;;;;;;;;4965542;28;20448;-72
2021/08/27 14:01:06;;;;;;;10.00;4.60;;;;;;;;;;4977623;28;20150;-74
2021/08/27 14:03:33;;;;;;;9.88;4.50;;;;;;;;;;4980258;28;20042;-70
2021/08/27 14:06:00;;;;;;;9.73;4.45;;;;;;;;;;4982238;28;20108;-70
2021/08/27 14:08:32;;;;;;;7.85;3.88;;;;;;;;;;4978601;28;20500;-71
2021/08/27 14:10:59;;;;;;;8.38;3.78;;;;;;;;;;4961129;28;20145;-71
2021/08/27 14:13:26;;;;;;;6.07;3.28;;;;;;;;;;4975259;28;20050;-70
2021/08/27 14:15:53;;;;;;;8.68;3.38;;;;;;;;;;4957841;28;20046;-70
2021/08/27 14:18:21;;;;;;;6.55;3.97;;;;;;;;;;4974671;28;20038;-74
2021/08/27 14:20:48;;;;;;;8.43;2.97;;;;;;;;;;4960633;28;20081;-73
2021/08/27 14:23:15;;;;;;;9.75;4.32;;;;;;;;;;4975789;28;20533;-71
2021/08/27 14:25:43;;;;;;;6.88;3.30;;;;;;;;;;4962336;28;20497;-71
2021/08/27 14:28:12;;;;;;;7.47;3.55;;;;;;;;;;4976570;28;20126;-70
2021/08/27 14:30:40;;;;;;;8.18;3.45;;;;;;;;;;4975371;28;22144;-71
2021/08/27 14:33:07;;;;;;;7.40;3.55;;;;;;;;;;4946021;28;20046;-77
2021/08/27 14:35:34;;;;;;;8.20;2.67;;;;;;;;;;4971022;28;20154;-70
2021/08/27 14:38:02;;;;;;;5.20;2.67;;;;;;;;;;4958227;28;20085;-72
2021/08/27 14:40:29;;;;;;;6.75;2.17;;;;;;;;;;4958240;28;20055;-69
2021/08/27 14:42:56;;;;;;;5.95;2.33;;;;;;;;;;4954634;28;20058;-70
2021/08/27 14:45:23;;;;;;;5.68;1.88;;;;;;;;;;4960144;28;20525;-69
2021/08/27 14:47:50;;;;;;;6.82;2.22;;;;;;;;;;4959658;28;20089;-70
2021/08/27 14:50:18;;;;;;;4.43;1.67;;;;;;;;;;4958415;28;20175;-72
2021/08/27 14:52:45;;;;;;;5.72;2.53;;;;;;;;;;4959977;28;20050;-72
2021/08/27 14:55:13;;;;;;;6.72;2.10;;;;;;;;;;4956071;28;20468;-71